createdAt,value
2022-09-03T00:03:05.494Z,13.28
2022-09-03T00:08:09.824Z,13.42
2022-09-03T00:13:13.816Z,13.50
2022-09-03T00:18:16.546Z,13.46
2022-09-03T00:23:19.328Z,13.50
2022-09-03T00:28:24.305Z,13.45
2022-09-03T00:33:27.909Z,13.44
2022-09-03T00:38:30.658Z,13.35
2022-09-03T00:43:34.980Z,13.12
2022-09-03T00:48:37.830Z,13.10
2022-09-03T00:53:42.362Z,13.01
2022-09-03T00:58:45.351Z,12.97
2022-09-03T01:03:51.200Z,12.96
2022-09-03T01:09:01.398Z,13.16
2022-09-03T01:14:06.647Z,13.14
2022-09-03T01:19:09.934Z,13.06
2022-09-03T01:24:13.279Z,12.88
2022-09-03T01:29:16.361Z,12.72
2022-09-03T01:34:19.490Z,12.63
2022-09-03T01:39:22.606Z,12.60
2022-09-03T01:44:25.353Z,12.67
2022-09-03T01:49:29.186Z,12.66
2022-09-03T01:54:33.250Z,12.45
2022-09-03T01:59:36.977Z,12.30
2022-09-03T02:04:39.681Z,12.27
2022-09-03T02:09:42.574Z,12.16
2022-09-03T02:14:45.305Z,12.02
2022-09-03T02:19:48.002Z,11.92
2022-09-03T02:24:50.697Z,11.86
2022-09-03T02:29:53.550Z,11.86
2022-09-03T02:34:56.456Z,11.94
2022-09-03T02:39:59.254Z,11.86
2022-09-03T02:45:02.181Z,11.77
2022-09-03T02:50:04.988Z,11.70
2022-09-03T02:55:07.723Z,11.73
2022-09-03T03:00:10.518Z,11.74
2022-09-03T03:05:13.557Z,11.66
2022-09-03T03:10:16.428Z,11.69
2022-09-03T03:15:19.486Z,11.67
2022-09-03T03:20:22.181Z,11.67
2022-09-03T03:25:24.910Z,11.69
2022-09-03T03:30:27.711Z,11.59
2022-09-03T03:35:30.470Z,11.51
2022-09-03T03:40:33.955Z,11.37
2022-09-03T03:45:36.791Z,11.33
2022-09-03T03:50:39.595Z,11.29
2022-09-03T03:55:42.422Z,11.33
2022-09-03T04:00:45.221Z,11.32
2022-09-03T04:05:48.655Z,11.38
2022-09-03T04:10:51.591Z,11.36
2022-09-03T04:15:54.358Z,11.36
2022-09-03T04:20:57.159Z,11.44
2022-09-03T04:26:00.021Z,11.50
2022-09-03T04:31:03.147Z,11.62
2022-09-03T04:36:08.296Z,11.81
2022-09-03T04:41:11.310Z,12.05
2022-09-03T04:46:16.282Z,12.26
2022-09-03T04:51:20.977Z,12.45
2022-09-03T04:56:23.784Z,12.80
2022-09-03T05:01:26.553Z,13.12
2022-09-03T05:06:29.974Z,13.42
2022-09-03T05:11:32.762Z,13.55
2022-09-03T05:16:35.664Z,13.92
2022-09-03T05:21:38.479Z,13.71
2022-09-03T05:26:41.955Z,13.88
2022-09-03T05:31:44.722Z,14.34
2022-09-03T05:36:50.076Z,14.97
2022-09-03T05:41:53.252Z,15.37
2022-09-03T05:46:56.798Z,15.57
2022-09-03T05:51:59.572Z,15.68
2022-09-03T05:57:02.353Z,15.83
2022-09-03T06:02:05.606Z,15.68
2022-09-03T06:07:08.884Z,16.04
2022-09-03T06:12:11.612Z,15.65
2022-09-03T06:17:15.162Z,16.06
2022-09-03T06:22:18.249Z,16.02
2022-09-03T06:27:21.307Z,15.98
2022-09-03T06:32:24.682Z,15.72
2022-09-03T06:37:27.825Z,15.67
2022-09-03T06:42:31.476Z,15.77
2022-09-03T06:47:34.174Z,16.14
2022-09-03T06:52:36.912Z,16.14
2022-09-03T06:57:40.028Z,16.28
2022-09-03T07:02:44.956Z,16.12
2022-09-03T07:07:48.001Z,15.92
2022-09-03T07:12:50.873Z,15.65
2022-09-03T07:17:53.766Z,15.40
2022-09-03T07:22:56.773Z,15.38
2022-09-03T07:28:00.148Z,15.38
2022-09-03T07:33:04.592Z,15.64
2022-09-03T07:38:08.112Z,15.81
2022-09-03T07:43:11.051Z,16.07
2022-09-03T07:48:13.907Z,16.26
2022-09-03T07:53:17.090Z,16.15
2022-09-03T07:58:24.022Z,16.23
2022-09-03T08:03:27.020Z,16.55
2022-09-03T08:08:33.669Z,16.91
2022-09-03T08:13:38.635Z,17.51
2022-09-03T08:18:41.396Z,17.59
2022-09-03T08:23:44.319Z,17.96
2022-09-03T08:28:47.280Z,18.70
2022-09-03T08:33:50.979Z,19.17
2022-09-03T08:38:55.315Z,19.10
2022-09-03T08:43:58.219Z,19.10
2022-09-03T08:49:05.986Z,19.45
2022-09-03T08:54:08.932Z,19.49
2022-09-03T08:59:11.804Z,20.34
2022-09-03T09:04:19.197Z,21.25
2022-09-03T09:09:22.045Z,22.51
2022-09-03T09:14:24.915Z,22.90
2022-09-03T09:19:27.881Z,22.97
2022-09-03T09:24:37.156Z,22.89
2022-09-03T09:29:39.909Z,22.89
2022-09-03T09:34:42.752Z,23.25
2022-09-03T09:39:45.787Z,23.93
2022-09-03T09:44:49.008Z,23.75
2022-09-03T09:49:51.878Z,23.95
2022-09-03T09:54:55.282Z,24.70
2022-09-03T09:59:58.182Z,24.81
2022-09-03T10:05:01.122Z,24.12
2022-09-03T10:10:04.302Z,23.40
2022-09-03T10:15:07.426Z,23.26
2022-09-03T10:20:31.140Z,23.17
2022-09-03T10:25:34.037Z,22.86
2022-09-03T10:30:40.105Z,23.69
2022-09-03T10:35:43.408Z,24.50
2022-09-03T10:40:46.229Z,25.25
2022-09-03T10:45:49.877Z,25.12
2022-09-03T10:50:52.762Z,26.14
2022-09-03T10:55:56.026Z,25.81
2022-09-03T11:00:59.079Z,25.79
2022-09-03T11:06:02.022Z,25.63
2022-09-03T11:11:04.771Z,26.23
2022-09-03T11:16:07.727Z,25.79
2022-09-03T11:21:12.366Z,25.35
2022-09-03T11:26:15.518Z,25.57
2022-09-03T11:31:18.762Z,26.04
2022-09-03T11:36:21.680Z,26.27
2022-09-03T11:41:26.106Z,25.72
2022-09-03T11:46:29.108Z,25.18
2022-09-03T11:51:32.404Z,24.51
2022-09-03T11:56:35.299Z,24.41
2022-09-03T12:01:38.466Z,24.24
2022-09-03T12:06:41.581Z,23.95
2022-09-03T12:11:44.460Z,23.72
2022-09-03T12:16:48.698Z,23.36
2022-09-03T12:21:52.758Z,23.81
2022-09-03T12:26:56.291Z,23.36
2022-09-03T12:31:59.283Z,23.45
2022-09-03T12:37:02.175Z,23.73
2022-09-03T12:42:04.941Z,24.16
2022-09-03T12:52:30.513Z,24.31
2022-09-03T12:57:34.028Z,24.19
2022-09-03T13:02:36.881Z,24.58
2022-09-03T13:07:44.712Z,24.56
2022-09-03T13:12:53.162Z,24.36
2022-09-03T13:17:56.318Z,23.93
2022-09-03T13:22:59.425Z,23.93
2022-09-03T13:28:02.703Z,23.86
2022-09-03T13:33:06.040Z,23.79
2022-09-03T13:38:09.029Z,24.28
2022-09-03T13:43:17.024Z,24.28
2022-09-03T13:48:39.174Z,23.94
2022-09-03T13:53:43.083Z,23.78
2022-09-03T13:58:46.079Z,23.23
2022-09-03T14:03:49.365Z,23.36
2022-09-03T14:08:58.606Z,22.76
2022-09-03T14:14:01.809Z,22.55
2022-09-03T14:19:06.618Z,22.20
2022-09-03T14:24:09.450Z,21.94
2022-09-03T14:29:12.333Z,21.34
2022-09-03T14:34:15.141Z,18.85
2022-09-03T14:39:18.231Z,17.34
2022-09-03T14:44:21.130Z,16.51
2022-09-03T14:49:23.941Z,15.96
2022-09-03T14:54:28.001Z,15.86
2022-09-03T14:59:30.733Z,15.85
2022-09-03T15:04:33.576Z,15.73
2022-09-03T15:09:37.329Z,15.86
2022-09-03T15:14:40.163Z,15.64
2022-09-03T15:19:44.768Z,15.38
2022-09-03T15:24:47.758Z,15.40
2022-09-03T15:29:51.697Z,15.51
2022-09-03T15:34:54.627Z,15.68
2022-09-03T15:39:57.936Z,15.71
2022-09-03T15:45:01.504Z,15.64
2022-09-03T15:50:06.330Z,15.52
2022-09-03T15:55:09.775Z,15.49
2022-09-03T16:00:12.598Z,15.60
2022-09-03T16:05:16.448Z,16.00
2022-09-03T16:10:26.625Z,16.44
2022-09-03T16:15:30.305Z,16.90
2022-09-03T16:20:34.366Z,17.50
2022-09-03T16:25:38.671Z,17.63
2022-09-03T16:30:47.985Z,17.74
2022-09-03T16:35:50.822Z,17.46
2022-09-03T16:40:57.092Z,17.08
2022-09-03T16:46:00.985Z,16.69
2022-09-03T16:51:06.138Z,16.43
2022-09-03T16:56:14.006Z,16.24
2022-09-03T17:01:16.972Z,16.09
2022-09-03T17:06:20.093Z,15.99
2022-09-03T17:11:22.933Z,15.87
2022-09-03T17:16:26.044Z,15.81
2022-09-03T17:21:28.784Z,15.75
2022-09-03T17:26:32.558Z,15.64
2022-09-03T17:31:36.791Z,15.64
2022-09-03T17:36:39.669Z,15.71
2022-09-03T17:41:42.377Z,15.67
2022-09-03T17:46:45.274Z,15.56
2022-09-03T17:51:48.082Z,15.30
2022-09-03T17:56:50.839Z,15.21
2022-09-03T18:01:53.988Z,15.09
2022-09-03T18:06:57.351Z,14.95
2022-09-03T18:12:00.177Z,14.87
2022-09-03T18:17:03.181Z,14.77
2022-09-03T18:22:23.285Z,14.58
2022-09-03T18:27:43.574Z,14.50
2022-09-03T18:33:04.109Z,14.43
2022-09-03T18:38:27.530Z,14.41
2022-09-03T18:43:49.237Z,14.30
2022-09-03T18:49:09.583Z,14.29
2022-09-03T18:54:44.990Z,14.26
2022-09-03T19:00:10.574Z,14.31
2022-09-03T19:05:30.886Z,14.30
2022-09-03T19:10:51.546Z,14.21
2022-09-03T19:16:12.336Z,14.12
2022-09-03T19:21:33.358Z,14.05
2022-09-03T19:26:53.764Z,13.98
2022-09-03T19:32:13.999Z,14.03
2022-09-03T19:37:34.348Z,13.99
2022-09-03T19:42:54.759Z,13.91
2022-09-03T19:48:15.314Z,13.81
2022-09-03T19:53:35.860Z,13.77
2022-09-03T19:58:56.415Z,13.69
2022-09-03T20:04:16.993Z,13.63
2022-09-03T20:09:37.385Z,13.73
2022-09-03T20:14:40.963Z,13.53
2022-09-03T20:19:45.907Z,13.51
2022-09-03T20:24:49.558Z,13.57
2022-09-03T20:29:52.419Z,13.60
2022-09-03T20:34:55.275Z,13.52
2022-09-03T20:39:58.622Z,13.48
2022-09-03T20:45:08.218Z,13.44
2022-09-03T20:50:13.129Z,13.45
2022-09-03T20:55:15.906Z,13.49
2022-09-03T21:00:18.986Z,13.47
2022-09-03T21:05:22.059Z,13.41
2022-09-03T21:10:24.901Z,13.43
2022-09-03T21:15:27.703Z,13.35
2022-09-03T21:20:30.570Z,13.34
2022-09-03T21:25:33.401Z,13.44
2022-09-03T21:30:38.158Z,13.36
2022-09-03T21:35:42.985Z,13.37
2022-09-03T21:40:46.908Z,13.36
2022-09-03T21:45:50.246Z,13.41
2022-09-03T21:50:53.157Z,13.39
2022-09-03T21:55:56.454Z,13.31
2022-09-03T22:00:59.369Z,13.25
2022-09-03T22:06:02.238Z,13.28
2022-09-03T22:11:05.380Z,13.18
2022-09-03T22:16:13.574Z,13.16
2022-09-03T22:21:16.619Z,13.07
2022-09-03T22:26:21.409Z,12.96
2022-09-03T22:31:24.345Z,12.95
2022-09-03T22:36:27.357Z,12.91
2022-09-03T22:41:31.011Z,12.88
2022-09-03T22:46:33.839Z,12.92
2022-09-03T22:51:36.572Z,12.84
2022-09-03T22:56:39.452Z,12.82
2022-09-03T23:01:42.472Z,12.73
2022-09-03T23:06:51.009Z,12.70
2022-09-03T23:11:53.697Z,12.67
2022-09-03T23:16:56.616Z,12.69
2022-09-03T23:22:00.376Z,12.67
2022-09-03T23:27:03.109Z,12.65
2022-09-03T23:32:06.218Z,12.64
2022-09-03T23:37:33.190Z,12.75
2022-09-03T23:42:37.931Z,12.70
2022-09-03T23:47:40.701Z,12.62
2022-09-03T23:52:43.421Z,12.53
2022-09-03T23:57:46.772Z,12.49
